Aérodrome :
LOGIN :

S'inscrire | Disclaimer

   EN    FR    IT 

 










Légende :    VFR   VFR Marginal   IFR   IFR Intensif   IFR Très Intensif
Visi : 
Plafond : 
>= 8 km
>= 3000ft
5 à 8 km
1000 à 3000 ft
1500m à 5 km
500 à 1000 ft
800 à 1500m
200 à 500 ft
< 800m
< 200 ft
Symboles :   Orages  Brouillard  Fortes neiges  Fortes précipitations  Vent > 20 kt
SIGMETs :   Divers  Orages  Givrage  Turbulence  Onde Orograph.  Cendres Volcan.






- Altitude de l'aérodrome : 243 ft
- Code IATA : HOV


ENOV - Ørsta-Volda , Hovden

DERNIER METAR :
  • 011750Z 24012KT 220V280 9999 VCSH SCT027 BKN037 04/M02 Q0999 RMK WIND 2175FT 27025G37KT

METARs EXPIRÉS :
  • 011720Z 24009KT 220V280 8000 VCSH SCT028 BKN038 04/M00 Q0999 RMK WIND 2175FT 27027G43KT
  • 011650Z 23014G26KT 170V280 9999 -SHRA FEW010 SCT031 BKN045 04/M01 Q0999 RMK WIND 2175FT 27031G42KT
  • 011620Z 21021KT 150V260 9999 -SHGSRA SCT021CB SCT028 BKN039 03/M00 Q0999 RMK WIND 2175FT 26028KT
  • 011550Z 24011G25KT 200V280 9999 -SHRA SCT040 BKN055 05/M01 Q0998 RMK WIND 2175FT 27025G37KT
  • 011520Z 23009KT 200V260 9999 -SHRA SCT028 BKN034 05/01 Q0998 RMK WIND 2175FT 26026G40KT

TAF N/A



MET'MAP, la Météo Aéronautique d'un coup d'oeil ! - Copyright ORBIFLY Décembre 2007 - Disclaimer

ORBIFLY MET'MAP TEAM :

Programmation & Développement : Alexandra Zaïnal
Sur une idée originale de : Baudouin d'Aumeries
Assistance à la programmation : Marc-Olivier Méhu
Soutien technique & logistique : Manuel Goepfert

Contact : metmap@orbifly.com




SOURCES & CREDITS :

   NOAA